sensor_id;sensor_type;location;lat;lon;timestamp;temperature;humidity
59855;DHT22;45732;52.850;6.896;2022-08-04T00:00:16;22.10;99.90
59855;DHT22;45732;52.850;6.896;2022-08-04T00:05:41;22.00;99.90
59855;DHT22;45732;52.850;6.896;2022-08-04T00:08:35;21.90;99.90
59855;DHT22;45732;52.850;6.896;2022-08-04T00:11:03;22.00;99.90
59855;DHT22;45732;52.850;6.896;2022-08-04T00:13:31;22.00;99.90
59855;DHT22;45732;52.850;6.896;2022-08-04T00:16:06;22.00;99.90
59855;DHT22;45732;52.850;6.896;2022-08-04T00:18:45;22.00;99.90
59855;DHT22;45732;52.850;6.896;2022-08-04T00:21:15;21.90;99.90
59855;DHT22;45732;52.850;6.896;2022-08-04T00:23:44;21.90;99.90
59855;DHT22;45732;52.850;6.896;2022-08-04T00:26:09;21.90;99.90
59855;DHT22;45732;52.850;6.896;2022-08-04T00:28:37;21.90;99.90
59855;DHT22;45732;52.850;6.896;2022-08-04T00:31:12;21.80;99.90
59855;DHT22;45732;52.850;6.896;2022-08-04T00:33:39;21.80;99.90
59855;DHT22;45732;52.850;6.896;2022-08-04T00:36:10;21.80;99.90
59855;DHT22;45732;52.850;6.896;2022-08-04T00:38:36;21.80;99.90
59855;DHT22;45732;52.850;6.896;2022-08-04T00:52:03;21.60;99.90
59855;DHT22;45732;52.850;6.896;2022-08-04T01:00:35;21.70;99.90
59855;DHT22;45732;52.850;6.896;2022-08-04T01:03:20;21.60;99.90
59855;DHT22;45732;52.850;6.896;2022-08-04T01:06:05;21.60;99.90
59855;DHT22;45732;52.850;6.896;2022-08-04T01:16:59;21.50;99.90
59855;DHT22;45732;52.850;6.896;2022-08-04T01:20:06;21.40;99.90
59855;DHT22;45732;52.850;6.896;2022-08-04T01:31:25;21.50;99.90
59855;DHT22;45732;52.850;6.896;2022-08-04T01:33:57;21.50;99.90
59855;DHT22;45732;52.850;6.896;2022-08-04T01:36:23;21.50;99.90
59855;DHT22;45732;52.850;6.896;2022-08-04T01:38:53;21.40;99.90
59855;DHT22;45732;52.850;6.896;2022-08-04T01:41:19;21.40;99.90
59855;DHT22;45732;52.850;6.896;2022-08-04T01:43:45;21.30;99.90
59855;DHT22;45732;52.850;6.896;2022-08-04T01:46:14;21.40;99.90
59855;DHT22;45732;52.850;6.896;2022-08-04T01:48:46;21.30;99.90
59855;DHT22;45732;52.850;6.896;2022-08-04T01:51:12;21.30;99.90
59855;DHT22;45732;52.850;6.896;2022-08-04T01:53:40;21.20;99.90
59855;DHT22;45732;52.850;6.896;2022-08-04T01:56:09;21.20;99.90
59855;DHT22;45732;52.850;6.896;2022-08-04T01:58:36;21.20;99.90
59855;DHT22;45732;52.850;6.896;2022-08-04T02:01:07;21.20;99.90
59855;DHT22;45732;52.850;6.896;2022-08-04T02:03:35;21.20;99.90
59855;DHT22;45732;52.850;6.896;2022-08-04T02:08:43;21.10;99.90
59855;DHT22;45732;52.850;6.896;2022-08-04T02:11:16;21.10;99.90
59855;DHT22;45732;52.850;6.896;2022-08-04T02:21:25;21.10;99.90
59855;DHT22;45732;52.850;6.896;2022-08-04T02:23:56;21.10;99.90
59855;DHT22;45732;52.850;6.896;2022-08-04T02:26:27;21.00;99.90
59855;DHT22;45732;52.850;6.896;2022-08-04T02:28:57;21.00;99.90
59855;DHT22;45732;52.850;6.896;2022-08-04T02:31:31;21.00;99.90
59855;DHT22;45732;52.850;6.896;2022-08-04T02:34:13;21.00;99.90
59855;DHT22;45732;52.850;6.896;2022-08-04T02:36:41;21.00;99.90
59855;DHT22;45732;52.850;6.896;2022-08-04T02:39:09;20.90;99.90
59855;DHT22;45732;52.850;6.896;2022-08-04T02:41:36;20.90;99.90
59855;DHT22;45732;52.850;6.896;2022-08-04T02:44:08;20.90;99.90
59855;DHT22;45732;52.850;6.896;2022-08-04T02:46:36;20.90;99.90
59855;DHT22;45732;52.850;6.896;2022-08-04T02:49:07;20.90;99.90
59855;DHT22;45732;52.850;6.896;2022-08-04T02:51:37;20.80;99.90
59855;DHT22;45732;52.850;6.896;2022-08-04T02:54:05;20.80;99.90
59855;DHT22;45732;52.850;6.896;2022-08-04T02:56:33;20.80;99.90
59855;DHT22;45732;52.850;6.896;2022-08-04T02:59:10;20.70;99.90
59855;DHT22;45732;52.850;6.896;2022-08-04T03:01:37;20.80;99.90
59855;DHT22;45732;52.850;6.896;2022-08-04T03:37:02;20.50;99.90
59855;DHT22;45732;52.850;6.896;2022-08-04T03:42:10;20.40;99.90
59855;DHT22;45732;52.850;6.896;2022-08-04T03:53:56;20.50;99.90
59855;DHT22;45732;52.850;6.896;2022-08-04T03:56:25;20.50;99.90
59855;DHT22;45732;52.850;6.896;2022-08-04T04:26:58;20.30;99.90
59855;DHT22;45732;52.850;6.896;2022-08-04T04:32:42;20.40;99.90
59855;DHT22;45732;52.850;6.896;2022-08-04T04:35:41;20.40;99.90
59855;DHT22;45732;52.850;6.896;2022-08-04T04:38:26;20.40;99.90
59855;DHT22;45732;52.850;6.896;2022-08-04T04:49:44;20.30;99.90
59855;DHT22;45732;52.850;6.896;2022-08-04T04:52:25;20.30;99.90
59855;DHT22;45732;52.850;6.896;2022-08-04T04:54:56;20.30;99.90
59855;DHT22;45732;52.850;6.896;2022-08-04T04:57:28;20.30;99.90
59855;DHT22;45732;52.850;6.896;2022-08-04T04:59:59;20.30;99.90
59855;DHT22;45732;52.850;6.896;2022-08-04T05:02:49;20.30;99.90
59855;DHT22;45732;52.850;6.896;2022-08-04T05:08:50;20.40;99.90
59855;DHT22;45732;52.850;6.896;2022-08-04T05:14:05;20.40;99.90
59855;DHT22;45732;52.850;6.896;2022-08-04T05:16:40;20.50;99.90
59855;DHT22;45732;52.850;6.896;2022-08-04T05:19:37;20.50;99.90
59855;DHT22;45732;52.850;6.896;2022-08-04T05:22:21;20.60;99.90
59855;DHT22;45732;52.850;6.896;2022-08-04T05:24:48;20.60;99.90
59855;DHT22;45732;52.850;6.896;2022-08-04T05:27:24;20.70;99.90
59855;DHT22;45732;52.850;6.896;2022-08-04T05:29:56;20.80;99.90
59855;DHT22;45732;52.850;6.896;2022-08-04T05:32:28;20.90;99.90
59855;DHT22;45732;52.850;6.896;2022-08-04T05:34:59;20.90;99.90
59855;DHT22;45732;52.850;6.896;2022-08-04T05:37:27;20.90;99.90
59855;DHT22;45732;52.850;6.896;2022-08-04T05:40:01;21.00;99.90
59855;DHT22;45732;52.850;6.896;2022-08-04T05:42:30;21.00;99.90
59855;DHT22;45732;52.850;6.896;2022-08-04T05:44:58;21.10;99.90
59855;DHT22;45732;52.850;6.896;2022-08-04T05:47:24;21.10;99.90
59855;DHT22;45732;52.850;6.896;2022-08-04T05:49:50;21.10;99.90
59855;DHT22;45732;52.850;6.896;2022-08-04T05:52:17;21.00;99.90
59855;DHT22;45732;52.850;6.896;2022-08-04T05:54:44;21.10;99.90
59855;DHT22;45732;52.850;6.896;2022-08-04T05:57:11;21.10;99.90
59855;DHT22;45732;52.850;6.896;2022-08-04T05:59:38;21.10;99.90
59855;DHT22;45732;52.850;6.896;2022-08-04T06:02:07;21.20;99.90
59855;DHT22;45732;52.850;6.896;2022-08-04T06:04:38;21.20;99.90
59855;DHT22;45732;52.850;6.896;2022-08-04T06:07:05;21.20;99.90
59855;DHT22;45732;52.850;6.896;2022-08-04T06:09:31;21.30;99.90
59855;DHT22;45732;52.850;6.896;2022-08-04T06:12:03;21.30;99.90
59855;DHT22;45732;52.850;6.896;2022-08-04T06:14:37;21.40;99.90
59855;DHT22;45732;52.850;6.896;2022-08-04T06:17:05;21.40;99.90
59855;DHT22;45732;52.850;6.896;2022-08-04T06:19:34;21.40;99.90
59855;DHT22;45732;52.850;6.896;2022-08-04T06:22:03;21.40;99.90
59855;DHT22;45732;52.850;6.896;2022-08-04T06:24:30;21.50;99.90
59855;DHT22;45732;52.850;6.896;2022-08-04T06:26:57;21.50;99.90
59855;DHT22;45732;52.850;6.896;2022-08-04T06:29:25;21.60;99.90
59855;DHT22;45732;52.850;6.896;2022-08-04T06:31:57;21.70;99.90
59855;DHT22;45732;52.850;6.896;2022-08-04T06:34:30;21.70;99.90
59855;DHT22;45732;52.850;6.896;2022-08-04T06:36:57;21.70;99.90
59855;DHT22;45732;52.850;6.896;2022-08-04T06:39:25;21.80;99.90
59855;DHT22;45732;52.850;6.896;2022-08-04T06:41:53;21.90;99.90
59855;DHT22;45732;52.850;6.896;2022-08-04T06:44:20;22.00;99.90
59855;DHT22;45732;52.850;6.896;2022-08-04T06:46:47;22.00;99.90
59855;DHT22;45732;52.850;6.896;2022-08-04T06:49:13;22.10;99.90
59855;DHT22;45732;52.850;6.896;2022-08-04T06:51:40;22.20;99.90
59855;DHT22;45732;52.850;6.896;2022-08-04T06:54:07;22.20;99.90
59855;DHT22;45732;52.850;6.896;2022-08-04T06:56:33;22.30;99.90
59855;DHT22;45732;52.850;6.896;2022-08-04T06:59:01;22.30;99.90
59855;DHT22;45732;52.850;6.896;2022-08-04T07:01:27;22.30;99.90
59855;DHT22;45732;52.850;6.896;2022-08-04T07:03:54;22.30;99.90
59855;DHT22;45732;52.850;6.896;2022-08-04T07:06:21;22.30;99.90
59855;DHT22;45732;52.850;6.896;2022-08-04T07:08:48;22.40;99.90
59855;DHT22;45732;52.850;6.896;2022-08-04T07:11:14;22.40;99.90
59855;DHT22;45732;52.850;6.896;2022-08-04T07:13:41;22.40;99.90
59855;DHT22;45732;52.850;6.896;2022-08-04T07:16:08;22.40;99.90
59855;DHT22;45732;52.850;6.896;2022-08-04T07:18:34;22.50;99.90
59855;DHT22;45732;52.850;6.896;2022-08-04T07:21:00;22.50;99.90
59855;DHT22;45732;52.850;6.896;2022-08-04T07:23:26;22.50;99.90
59855;DHT22;45732;52.850;6.896;2022-08-04T07:25:54;22.60;99.90
59855;DHT22;45732;52.850;6.896;2022-08-04T07:28:21;22.60;99.90
59855;DHT22;45732;52.850;6.896;2022-08-04T07:30:48;22.70;99.90
59855;DHT22;45732;52.850;6.896;2022-08-04T07:33:17;22.70;99.90
59855;DHT22;45732;52.850;6.896;2022-08-04T07:35:47;22.80;99.90
59855;DHT22;45732;52.850;6.896;2022-08-04T07:38:12;22.90;99.90
59855;DHT22;45732;52.850;6.896;2022-08-04T07:40:39;22.90;99.90
59855;DHT22;45732;52.850;6.896;2022-08-04T07:43:05;23.00;99.90
59855;DHT22;45732;52.850;6.896;2022-08-04T07:45:31;23.10;99.90
59855;DHT22;45732;52.850;6.896;2022-08-04T07:47:57;23.20;99.90
59855;DHT22;45732;52.850;6.896;2022-08-04T07:50:24;23.20;99.90
59855;DHT22;45732;52.850;6.896;2022-08-04T07:52:51;23.20;99.90
59855;DHT22;45732;52.850;6.896;2022-08-04T07:55:18;23.30;99.90
59855;DHT22;45732;52.850;6.896;2022-08-04T07:57:45;23.30;99.90
59855;DHT22;45732;52.850;6.896;2022-08-04T08:00:11;23.40;99.90
59855;DHT22;45732;52.850;6.896;2022-08-04T08:02:40;23.40;99.90
59855;DHT22;45732;52.850;6.896;2022-08-04T08:05:09;23.50;99.90
59855;DHT22;45732;52.850;6.896;2022-08-04T08:07:35;23.50;99.90
59855;DHT22;45732;52.850;6.896;2022-08-04T08:10:01;23.60;99.90
59855;DHT22;45732;52.850;6.896;2022-08-04T08:12:28;23.70;99.90
59855;DHT22;45732;52.850;6.896;2022-08-04T08:14:54;23.80;99.90
59855;DHT22;45732;52.850;6.896;2022-08-04T08:17:20;23.90;99.90
59855;DHT22;45732;52.850;6.896;2022-08-04T08:19:46;24.00;99.90
59855;DHT22;45732;52.850;6.896;2022-08-04T08:22:12;24.00;99.90
59855;DHT22;45732;52.850;6.896;2022-08-04T08:24:37;24.10;99.90
59855;DHT22;45732;52.850;6.896;2022-08-04T08:27:03;24.10;99.90
59855;DHT22;45732;52.850;6.896;2022-08-04T08:29:29;24.10;99.90
59855;DHT22;45732;52.850;6.896;2022-08-04T08:31:59;24.20;99.90
59855;DHT22;45732;52.850;6.896;2022-08-04T08:34:26;24.20;99.90
59855;DHT22;45732;52.850;6.896;2022-08-04T08:39:38;24.30;99.90
59855;DHT22;45732;52.850;6.896;2022-08-04T08:48:27;24.50;99.90
59855;DHT22;45732;52.850;6.896;2022-08-04T08:51:21;24.70;99.90
59855;DHT22;45732;52.850;6.896;2022-08-04T08:53:57;24.80;99.90
59855;DHT22;45732;52.850;6.896;2022-08-04T09:04:56;25.00;99.90
59855;DHT22;45732;52.850;6.896;2022-08-04T09:10:45;25.10;99.90
59855;DHT22;45732;52.850;6.896;2022-08-04T09:13:23;25.30;99.90
59855;DHT22;45732;52.850;6.896;2022-08-04T09:16:10;25.30;99.90
59855;DHT22;45732;52.850;6.896;2022-08-04T09:21:23;25.40;99.90
59855;DHT22;45732;52.850;6.896;2022-08-04T09:24:10;25.50;99.90
59855;DHT22;45732;52.850;6.896;2022-08-04T09:27:02;25.50;99.90
59855;DHT22;45732;52.850;6.896;2022-08-04T09:29:43;25.60;99.90
59855;DHT22;45732;52.850;6.896;2022-08-04T09:32:22;25.70;99.90
59855;DHT22;45732;52.850;6.896;2022-08-04T09:37:43;25.90;99.90
59855;DHT22;45732;52.850;6.896;2022-08-04T09:40:28;26.00;99.90
59855;DHT22;45732;52.850;6.896;2022-08-04T09:46:08;26.30;99.90
59855;DHT22;45732;52.850;6.896;2022-08-04T09:51:23;26.60;99.90
59855;DHT22;45732;52.850;6.896;2022-08-04T09:59:40;26.80;99.90
59855;DHT22;45732;52.850;6.896;2022-08-04T10:02:10;26.90;99.90
59855;DHT22;45732;52.850;6.896;2022-08-04T10:04:39;27.10;99.90
59855;DHT22;45732;52.850;6.896;2022-08-04T10:19:35;27.40;99.90
59855;DHT22;45732;52.850;6.896;2022-08-04T10:26:52;27.50;99.90
59855;DHT22;45732;52.850;6.896;2022-08-04T10:29:27;27.50;99.90
59855;DHT22;45732;52.850;6.896;2022-08-04T10:38:18;27.50;99.90
59855;DHT22;45732;52.850;6.896;2022-08-04T10:48:55;27.40;99.90
59855;DHT22;45732;52.850;6.896;2022-08-04T10:53:59;27.40;99.90
59855;DHT22;45732;52.850;6.896;2022-08-04T10:56:43;27.30;99.90
59855;DHT22;45732;52.850;6.896;2022-08-04T10:59:15;27.30;99.90
59855;DHT22;45732;52.850;6.896;2022-08-04T11:01:45;27.30;99.90
59855;DHT22;45732;52.850;6.896;2022-08-04T11:07:01;27.40;99.90
59855;DHT22;45732;52.850;6.896;2022-08-04T11:09:28;27.50;99.90
59855;DHT22;45732;52.850;6.896;2022-08-04T11:12:06;27.60;99.90
59855;DHT22;45732;52.850;6.896;2022-08-04T11:14:43;27.60;99.90
59855;DHT22;45732;52.850;6.896;2022-08-04T11:17:17;27.60;99.90
59855;DHT22;45732;52.850;6.896;2022-08-04T11:22:38;27.50;99.90
59855;DHT22;45732;52.850;6.896;2022-08-04T11:25:19;27.40;99.90
59855;DHT22;45732;52.850;6.896;2022-08-04T11:28:08;27.40;99.90
59855;DHT22;45732;52.850;6.896;2022-08-04T11:30:51;27.30;99.90
59855;DHT22;45732;52.850;6.896;2022-08-04T11:36:43;27.30;99.90
59855;DHT22;45732;52.850;6.896;2022-08-04T11:39:28;27.30;99.90
59855;DHT22;45732;52.850;6.896;2022-08-04T11:42:09;27.30;99.90
59855;DHT22;45732;52.850;6.896;2022-08-04T11:44:50;27.40;99.90
59855;DHT22;45732;52.850;6.896;2022-08-04T11:50:03;27.30;99.90
59855;DHT22;45732;52.850;6.896;2022-08-04T11:52:31;27.30;99.90
59855;DHT22;45732;52.850;6.896;2022-08-04T11:55:02;27.40;99.90
59855;DHT22;45732;52.850;6.896;2022-08-04T11:57:28;27.30;99.90
59855;DHT22;45732;52.850;6.896;2022-08-04T11:59:55;27.20;99.90
59855;DHT22;45732;52.850;6.896;2022-08-04T12:05:29;27.10;99.90
59855;DHT22;45732;52.850;6.896;2022-08-04T12:16:55;26.90;99.90
59855;DHT22;45732;52.850;6.896;2022-08-04T12:22:17;26.70;99.90
59855;DHT22;45732;52.850;6.896;2022-08-04T12:24:45;26.60;99.90
59855;DHT22;45732;52.850;6.896;2022-08-04T12:27:20;26.50;99.90
59855;DHT22;45732;52.850;6.896;2022-08-04T12:29:50;26.50;99.90
59855;DHT22;45732;52.850;6.896;2022-08-04T12:32:18;26.40;99.90
59855;DHT22;45732;52.850;6.896;2022-08-04T12:40:22;26.30;99.90
59855;DHT22;45732;52.850;6.896;2022-08-04T12:43:05;26.20;99.90
59855;DHT22;45732;52.850;6.896;2022-08-04T12:45:33;26.10;99.90
59855;DHT22;45732;52.850;6.896;2022-08-04T12:48:00;26.10;99.90
59855;DHT22;45732;52.850;6.896;2022-08-04T12:50:30;26.00;99.90
59855;DHT22;45732;52.850;6.896;2022-08-04T12:52:56;25.90;99.90
59855;DHT22;45732;52.850;6.896;2022-08-04T12:55:26;25.80;99.90
59855;DHT22;45732;52.850;6.896;2022-08-04T12:57:53;25.70;99.90
59855;DHT22;45732;52.850;6.896;2022-08-04T13:00:34;25.70;99.90
59855;DHT22;45732;52.850;6.896;2022-08-04T13:03:10;25.60;99.90
59855;DHT22;45732;52.850;6.896;2022-08-04T13:05:40;25.50;99.90
59855;DHT22;45732;52.850;6.896;2022-08-04T13:08:08;25.30;99.90
59855;DHT22;45732;52.850;6.896;2022-08-04T13:10:40;25.30;99.90
59855;DHT22;45732;52.850;6.896;2022-08-04T13:13:14;25.20;99.90
59855;DHT22;45732;52.850;6.896;2022-08-04T13:15:41;25.10;99.90
59855;DHT22;45732;52.850;6.896;2022-08-04T13:18:09;24.80;99.90
59855;DHT22;45732;52.850;6.896;2022-08-04T13:20:38;24.70;99.90
59855;DHT22;45732;52.850;6.896;2022-08-04T13:23:09;24.80;99.90
59855;DHT22;45732;52.850;6.896;2022-08-04T13:25:47;24.70;99.90
59855;DHT22;45732;52.850;6.896;2022-08-04T13:28:24;24.80;99.90
59855;DHT22;45732;52.850;6.896;2022-08-04T13:30:56;24.90;99.90
59855;DHT22;45732;52.850;6.896;2022-08-04T13:33:35;25.00;99.90
59855;DHT22;45732;52.850;6.896;2022-08-04T13:36:02;25.10;99.90
59855;DHT22;45732;52.850;6.896;2022-08-04T13:38:30;25.20;99.90
59855;DHT22;45732;52.850;6.896;2022-08-04T13:41:03;25.40;99.90
59855;DHT22;45732;52.850;6.896;2022-08-04T13:43:45;25.40;99.90
59855;DHT22;45732;52.850;6.896;2022-08-04T13:46:19;25.40;99.90
59855;DHT22;45732;52.850;6.896;2022-08-04T13:48:45;25.60;99.90
59855;DHT22;45732;52.850;6.896;2022-08-04T13:51:16;25.50;99.90
59855;DHT22;45732;52.850;6.896;2022-08-04T13:53:42;25.50;99.90
59855;DHT22;45732;52.850;6.896;2022-08-04T13:56:10;25.60;99.90
59855;DHT22;45732;52.850;6.896;2022-08-04T13:58:43;25.50;99.90
59855;DHT22;45732;52.850;6.896;2022-08-04T14:01:17;25.60;99.90
59855;DHT22;45732;52.850;6.896;2022-08-04T14:03:59;25.60;99.90
59855;DHT22;45732;52.850;6.896;2022-08-04T14:06:48;25.60;99.90
59855;DHT22;45732;52.850;6.896;2022-08-04T14:09:15;25.60;99.90
59855;DHT22;45732;52.850;6.896;2022-08-04T14:11:47;25.60;99.90
59855;DHT22;45732;52.850;6.896;2022-08-04T14:14:23;25.70;99.90
59855;DHT22;45732;52.850;6.896;2022-08-04T14:17:14;25.60;99.90
59855;DHT22;45732;52.850;6.896;2022-08-04T14:27:27;25.80;99.90
59855;DHT22;45732;52.850;6.896;2022-08-04T14:29:53;25.80;99.90
59855;DHT22;45732;52.850;6.896;2022-08-04T14:32:19;25.80;99.90
59855;DHT22;45732;52.850;6.896;2022-08-04T14:34:45;25.90;99.90
59855;DHT22;45732;52.850;6.896;2022-08-04T14:37:14;25.90;99.90
59855;DHT22;45732;52.850;6.896;2022-08-04T14:39:48;26.00;99.90
59855;DHT22;45732;52.850;6.896;2022-08-04T14:42:15;26.00;99.90
59855;DHT22;45732;52.850;6.896;2022-08-04T14:44:57;26.00;99.90
59855;DHT22;45732;52.850;6.896;2022-08-04T14:47:58;26.10;99.90
59855;DHT22;45732;52.850;6.896;2022-08-04T14:53:06;26.20;99.90
59855;DHT22;45732;52.850;6.896;2022-08-04T14:55:32;26.30;99.90
59855;DHT22;45732;52.850;6.896;2022-08-04T14:57:57;26.30;99.90
59855;DHT22;45732;52.850;6.896;2022-08-04T15:00:35;26.30;99.90
59855;DHT22;45732;52.850;6.896;2022-08-04T15:03:04;26.20;99.90
59855;DHT22;45732;52.850;6.896;2022-08-04T15:05:33;26.20;99.90
59855;DHT22;45732;52.850;6.896;2022-08-04T15:07:59;26.30;99.90
59855;DHT22;45732;52.850;6.896;2022-08-04T15:10:26;26.30;99.90
59855;DHT22;45732;52.850;6.896;2022-08-04T15:12:53;26.30;99.90
59855;DHT22;45732;52.850;6.896;2022-08-04T15:15:19;26.30;99.90
59855;DHT22;45732;52.850;6.896;2022-08-04T15:17:45;26.30;99.90
59855;DHT22;45732;52.850;6.896;2022-08-04T15:20:12;26.30;99.90
59855;DHT22;45732;52.850;6.896;2022-08-04T15:22:38;26.40;99.90
59855;DHT22;45732;52.850;6.896;2022-08-04T15:25:04;26.40;99.90
59855;DHT22;45732;52.850;6.896;2022-08-04T15:27:33;26.40;99.90
59855;DHT22;45732;52.850;6.896;2022-08-04T15:30:08;26.40;99.90
59855;DHT22;45732;52.850;6.896;2022-08-04T15:32:37;26.50;99.90
59855;DHT22;45732;52.850;6.896;2022-08-04T15:35:12;26.50;99.90
59855;DHT22;45732;52.850;6.896;2022-08-04T15:37:59;26.40;99.90
59855;DHT22;45732;52.850;6.896;2022-08-04T15:40:36;26.40;99.90
59855;DHT22;45732;52.850;6.896;2022-08-04T15:45:52;26.40;99.90
59855;DHT22;45732;52.850;6.896;2022-08-04T15:58:51;26.50;99.90
59855;DHT22;45732;52.850;6.896;2022-08-04T16:01:18;26.50;99.90
59855;DHT22;45732;52.850;6.896;2022-08-04T16:03:46;26.50;99.90
59855;DHT22;45732;52.850;6.896;2022-08-04T16:19:08;26.40;99.90
59855;DHT22;45732;52.850;6.896;2022-08-04T16:22:00;26.60;99.90
59855;DHT22;45732;52.850;6.896;2022-08-04T16:27:49;26.40;99.90
59855;DHT22;45732;52.850;6.896;2022-08-04T16:30:16;26.40;99.90
59855;DHT22;45732;52.850;6.896;2022-08-04T16:32:46;26.50;99.90
59855;DHT22;45732;52.850;6.896;2022-08-04T16:35:31;26.50;99.90
59855;DHT22;45732;52.850;6.896;2022-08-04T16:38:13;26.50;99.90
59855;DHT22;45732;52.850;6.896;2022-08-04T16:40:41;26.50;99.90
59855;DHT22;45732;52.850;6.896;2022-08-04T16:43:18;26.50;99.90
59855;DHT22;45732;52.850;6.896;2022-08-04T16:48:34;26.20;99.90
59855;DHT22;45732;52.850;6.896;2022-08-04T16:51:07;26.20;99.90
59855;DHT22;45732;52.850;6.896;2022-08-04T16:53:44;26.10;99.90
59855;DHT22;45732;52.850;6.896;2022-08-04T16:56:11;26.00;99.90
59855;DHT22;45732;52.850;6.896;2022-08-04T16:58:38;25.90;99.90
59855;DHT22;45732;52.850;6.896;2022-08-04T17:01:09;25.80;99.90
59855;DHT22;45732;52.850;6.896;2022-08-04T17:03:39;25.70;99.90
59855;DHT22;45732;52.850;6.896;2022-08-04T17:06:11;25.60;99.90
59855;DHT22;45732;52.850;6.896;2022-08-04T17:08:41;25.60;99.90
59855;DHT22;45732;52.850;6.896;2022-08-04T17:11:07;25.60;99.90
59855;DHT22;45732;52.850;6.896;2022-08-04T17:13:39;25.40;99.90
59855;DHT22;45732;52.850;6.896;2022-08-04T17:16:07;25.50;99.90
59855;DHT22;45732;52.850;6.896;2022-08-04T17:18:39;25.40;99.90
59855;DHT22;45732;52.850;6.896;2022-08-04T17:21:11;25.40;99.90
59855;DHT22;45732;52.850;6.896;2022-08-04T17:23:40;25.40;99.90
59855;DHT22;45732;52.850;6.896;2022-08-04T17:28:34;25.60;99.90
59855;DHT22;45732;52.850;6.896;2022-08-04T17:31:01;25.50;99.90
59855;DHT22;45732;52.850;6.896;2022-08-04T17:33:27;26.10;99.90
59855;DHT22;45732;52.850;6.896;2022-08-04T17:35:58;26.30;99.90
59855;DHT22;45732;52.850;6.896;2022-08-04T17:38:43;26.30;99.90
59855;DHT22;45732;52.850;6.896;2022-08-04T17:41:11;26.20;99.90
59855;DHT22;45732;52.850;6.896;2022-08-04T17:48:44;25.70;99.90
59855;DHT22;45732;52.850;6.896;2022-08-04T17:51:16;25.70;99.90
59855;DHT22;45732;52.850;6.896;2022-08-04T17:53:43;25.60;99.90
59855;DHT22;45732;52.850;6.896;2022-08-04T17:56:30;25.60;99.90
59855;DHT22;45732;52.850;6.896;2022-08-04T17:59:23;25.90;99.90
59855;DHT22;45732;52.850;6.896;2022-08-04T18:07:08;27.10;99.90
59855;DHT22;45732;52.850;6.896;2022-08-04T18:09:56;26.90;99.90
59855;DHT22;45732;52.850;6.896;2022-08-04T18:12:31;26.50;99.90
59855;DHT22;45732;52.850;6.896;2022-08-04T18:15:19;26.20;99.90
59855;DHT22;45732;52.850;6.896;2022-08-04T18:17:46;25.80;99.90
59855;DHT22;45732;52.850;6.896;2022-08-04T18:20:19;25.50;99.90
59855;DHT22;45732;52.850;6.896;2022-08-04T18:22:46;25.30;99.90
59855;DHT22;45732;52.850;6.896;2022-08-04T18:25:14;25.10;99.90
59855;DHT22;45732;52.850;6.896;2022-08-04T18:27:51;24.80;99.90
59855;DHT22;45732;52.850;6.896;2022-08-04T18:30:18;24.60;99.90
59855;DHT22;45732;52.850;6.896;2022-08-04T18:32:44;24.50;99.90
59855;DHT22;45732;52.850;6.896;2022-08-04T18:35:10;24.40;99.90
59855;DHT22;45732;52.850;6.896;2022-08-04T18:37:37;24.30;99.90
59855;DHT22;45732;52.850;6.896;2022-08-04T18:40:04;24.20;99.90
59855;DHT22;45732;52.850;6.896;2022-08-04T18:42:30;24.10;99.90
59855;DHT22;45732;52.850;6.896;2022-08-04T18:44:56;24.00;99.90
59855;DHT22;45732;52.850;6.896;2022-08-04T18:47:22;24.00;99.90
59855;DHT22;45732;52.850;6.896;2022-08-04T18:49:54;23.90;99.90
59855;DHT22;45732;52.850;6.896;2022-08-04T18:52:20;23.70;99.90
59855;DHT22;45732;52.850;6.896;2022-08-04T18:54:46;23.70;99.90
59855;DHT22;45732;52.850;6.896;2022-08-04T18:57:17;23.50;99.90
59855;DHT22;45732;52.850;6.896;2022-08-04T18:59:44;23.50;99.90
59855;DHT22;45732;52.850;6.896;2022-08-04T19:02:09;23.40;99.90
59855;DHT22;45732;52.850;6.896;2022-08-04T19:04:35;23.30;99.90
59855;DHT22;45732;52.850;6.896;2022-08-04T19:07:02;23.30;99.90
59855;DHT22;45732;52.850;6.896;2022-08-04T19:09:28;23.20;99.90
59855;DHT22;45732;52.850;6.896;2022-08-04T19:11:54;23.10;99.90
59855;DHT22;45732;52.850;6.896;2022-08-04T19:14:21;23.00;99.90
59855;DHT22;45732;52.850;6.896;2022-08-04T19:16:47;23.00;99.90
59855;DHT22;45732;52.850;6.896;2022-08-04T19:19:13;22.90;99.90
59855;DHT22;45732;52.850;6.896;2022-08-04T19:21:39;22.70;99.90
59855;DHT22;45732;52.850;6.896;2022-08-04T19:24:05;22.60;99.90
59855;DHT22;45732;52.850;6.896;2022-08-04T19:26:32;22.60;99.90
59855;DHT22;45732;52.850;6.896;2022-08-04T19:28:58;22.60;99.90
59855;DHT22;45732;52.850;6.896;2022-08-04T19:31:23;22.60;99.90
59855;DHT22;45732;52.850;6.896;2022-08-04T19:33:49;22.60;99.90
59855;DHT22;45732;52.850;6.896;2022-08-04T19:36:15;22.50;99.90
59855;DHT22;45732;52.850;6.896;2022-08-04T19:38:41;22.40;99.90
59855;DHT22;45732;52.850;6.896;2022-08-04T19:41:07;22.30;99.90
59855;DHT22;45732;52.850;6.896;2022-08-04T19:43:34;22.30;99.90
59855;DHT22;45732;52.850;6.896;2022-08-04T19:46:00;22.20;99.90
59855;DHT22;45732;52.850;6.896;2022-08-04T19:48:26;22.10;99.90
59855;DHT22;45732;52.850;6.896;2022-08-04T19:50:52;22.00;99.90
59855;DHT22;45732;52.850;6.896;2022-08-04T19:53:18;22.00;99.90
59855;DHT22;45732;52.850;6.896;2022-08-04T19:55:44;21.90;99.90
59855;DHT22;45732;52.850;6.896;2022-08-04T19:58:10;21.90;99.90
59855;DHT22;45732;52.850;6.896;2022-08-04T20:00:37;21.90;99.90
59855;DHT22;45732;52.850;6.896;2022-08-04T20:03:07;21.80;99.90
59855;DHT22;45732;52.850;6.896;2022-08-04T20:05:34;21.80;99.90
59855;DHT22;45732;52.850;6.896;2022-08-04T20:07:59;21.60;99.90
59855;DHT22;45732;52.850;6.896;2022-08-04T20:10:25;21.60;99.90
59855;DHT22;45732;52.850;6.896;2022-08-04T20:12:51;21.50;99.90
59855;DHT22;45732;52.850;6.896;2022-08-04T20:15:17;21.50;99.90
59855;DHT22;45732;52.850;6.896;2022-08-04T20:17:44;21.50;99.90
59855;DHT22;45732;52.850;6.896;2022-08-04T20:20:10;21.50;99.90
59855;DHT22;45732;52.850;6.896;2022-08-04T20:22:36;21.50;99.90
59855;DHT22;45732;52.850;6.896;2022-08-04T20:25:03;21.50;99.90
59855;DHT22;45732;52.850;6.896;2022-08-04T20:27:28;21.50;99.90
59855;DHT22;45732;52.850;6.896;2022-08-04T20:29:54;21.60;99.90
59855;DHT22;45732;52.850;6.896;2022-08-04T20:32:22;21.50;99.90
59855;DHT22;45732;52.850;6.896;2022-08-04T20:34:50;21.60;99.90
59855;DHT22;45732;52.850;6.896;2022-08-04T20:37:15;21.50;99.90
59855;DHT22;45732;52.850;6.896;2022-08-04T20:39:41;21.40;99.90
59855;DHT22;45732;52.850;6.896;2022-08-04T20:42:07;21.40;99.90
59855;DHT22;45732;52.850;6.896;2022-08-04T20:44:33;21.50;99.90
59855;DHT22;45732;52.850;6.896;2022-08-04T20:46:59;21.40;99.90
59855;DHT22;45732;52.850;6.896;2022-08-04T20:49:25;21.40;99.90